Current Conditions - Area Ports

 

CYWH - Victoria Harbour, British Columbia, Canada
Distance from station: WSW 10km
Updated: 09/23/2018 9:00pm
NOT Current
Few Clouds
Few Clouds
 Wind from SW
Wind: SW 15 km/h
Temperature: 12°C
Dew Point: 7°C
Humidity: 72%
Barometer: 1022 hPa
Clouds: Few Clouds
Visibility: 24 km
Cloud details: Few Clouds 3962 m
Few Clouds 7620 m
2018/09/24 04:00 CYWH 240400Z 22008KT 15SM FEW130 FEW250 12/07 A3018 RMK AC1CI1 LAST STFD OBS/NEXT 241300 UTC SLP221
KFHR - Friday Harbor, Washington, USA
Distance from station: ENE 19km
Updated: 09/24/2018 2:53am
Mist, Clear
Mist, Clear
 Wind from calm
Wind: Calm
Temperature: 8°C
Dew Point: 6°C
Humidity: 87%
Barometer: 1023.4 hPa
Summary: Mist
Clouds: Clear
Visibility: 10 km
2018/09/24 09:53 KFHR 240953Z AUTO 00000KT 6SM BR CLR 08/06 A3022 RMK AO2 SLP233 T00780061 TSNO
 
KORS - Eastsound/Orcas, Washington, USA
Distance from station: NE 38km
Updated: 09/24/2018 2:55am
Clear
Clear
 Wind from S
Wind: S 6 km/h
Temperature: 8°C
Dew Point: 7°C
Humidity: 93%
Barometer: 1022.7 hPa
Clouds: Clear
Visibility: 16 km
2018/09/24 09:55 KORS 240955Z AUTO 18003KT 10SM CLR 08/07 A3020 RMK AO2
KNUW - Whidbey Is. Nas, Washington, USA
Distance from station: ESE 47km
Updated: 09/24/2018 2:56am
Clear
Clear
 Wind from calm
Wind: Calm
Temperature: 8°C
Dew Point: 6°C
Humidity: 87%
Barometer: 1024.4 hPa
Clouds: Clear
Visibility: 16 km
2018/09/24 09:56 KNUW 240956Z 00000KT 10SM CLR 08/06 A3025 RMK AO2 SLP243 T00830056 $
 
CWEZ - Saturna Isl (map, British Columbia, Canada
Distance from station: NNE 40km
Updated: 09/24/2018 2:00am

 Wind from NW
Wind: NW 4 km/h
Temperature: 10°C
Dew Point: 8°C
Humidity: 88%
2018/09/24 09:00 CWEZ 240900Z AUTO 31002KT 10/08 RMK AO1 SLP225 T01010076 53005
CYCD - Nanaimo Airport, British Columbia, Canada
Distance from station: NW 80km
Updated: 09/23/2018 9:00pm
NOT Current
Mostly cloudy
Mostly cloudy
 Wind from W
Wind: W 13 km/h
Temperature: 13°C
Dew Point: 9°C
Humidity: 77%
Barometer: 1021.7 hPa
Clouds: Mostly cloudy
Visibility: 48 km
Cloud details: Mostly cloudy 1981 m
2018/09/24 04:00 CYCD 240400Z 26007KT 30SM BKN065 13/09 A3017 RMK SC7 LAST STFD OBS/NEXT 241300Z SLP220
 
CWVF - Sand Heads (ls), British Columbia, Canada
Distance from station: N 72km
Updated: 09/24/2018 2:00am

 Wind from E
Wind: E 11 km/h
Temperature: 12°C
Dew Point: 11°C
Humidity: 94%
2018/09/24 09:00 CWVF 240900Z AUTO 09006KT 12/11 RMK AO1 T01180108
CWQK - Race Rocks Autob, British Columbia, Canada
Distance from station: SW 26km
Updated: 09/24/2018 3:00pm

 Wind from SSW
Wind: SSW 17 km/h
Temperature: 14°C
Dew Point: 7°C
Humidity: 63%
2018/09/24 22:00 CWQK 242200Z AUTO 20009KT 14/07 RMK AO1 SLP218 T01380071 51002
 
CWSP - Sheringham Autob, British Columbia, Canada
Distance from station: W 49km
Updated: 09/24/2018 2:00am

 Wind from WNW
Wind: WNW 6 km/h
2018/09/24 09:00 CWSP 240900Z AUTO 30003KT RMK AO1 53004